sensor_id;sensor_type;location;lat;lon;timestamp;pressure;altitude;pressure_sealevel;temperature;humidity
63946;BME280;50122;56.330;43.838;2023-05-11T16:04:06;101179.38;;;17.61;36.45
63946;BME280;50122;56.330;43.838;2023-05-11T16:06:33;101173.31;;;17.57;37.28
63946;BME280;50122;56.330;43.838;2023-05-11T16:09:00;101170.56;;;17.59;38.02
63946;BME280;50122;56.330;43.838;2023-05-11T16:11:27;101167.41;;;17.66;38.09
63946;BME280;50122;56.330;43.838;2023-05-11T16:13:53;101175.56;;;17.79;37.98
63946;BME280;50122;56.330;43.838;2023-05-11T16:16:20;101169.78;;;17.87;38.13
63946;BME280;50122;56.330;43.838;2023-05-11T16:18:47;101164.09;;;17.93;38.51
63946;BME280;50122;56.330;43.838;2023-05-11T16:21:14;101168.56;;;17.93;38.80
63946;BME280;50122;56.330;43.838;2023-05-11T16:23:41;101171.75;;;17.83;38.43
63946;BME280;50122;56.330;43.838;2023-05-11T16:26:08;101175.47;;;17.81;38.13
63946;BME280;50122;56.330;43.838;2023-05-11T16:28:37;101180.16;;;17.77;38.26
63946;BME280;50122;56.330;43.838;2023-05-11T16:31:04;101181.97;;;17.77;38.34
63946;BME280;50122;56.330;43.838;2023-05-11T16:33:30;101181.56;;;17.68;38.59
63946;BME280;50122;56.330;43.838;2023-05-11T16:35:57;101177.72;;;17.58;39.13
63946;BME280;50122;56.330;43.838;2023-05-11T16:38:24;101180.44;;;17.42;39.31
63946;BME280;50122;56.330;43.838;2023-05-11T16:40:50;101184.75;;;17.29;38.82
63946;BME280;50122;56.330;43.838;2023-05-11T16:43:17;101178.50;;;17.14;39.95
63946;BME280;50122;56.330;43.838;2023-05-11T16:45:44;101191.69;;;17.01;39.92
63946;BME280;50122;56.330;43.838;2023-05-11T16:48:11;101186.22;;;16.87;40.28
63946;BME280;50122;56.330;43.838;2023-05-11T16:50:38;101186.47;;;16.66;40.91
63946;BME280;50122;56.330;43.838;2023-05-11T16:53:21;101199.16;;;16.45;41.45
63946;BME280;50122;56.330;43.838;2023-05-11T16:55:53;101201.97;;;16.26;41.30
63946;BME280;50122;56.330;43.838;2023-05-11T16:58:21;101200.09;;;16.10;41.19
63946;BME280;50122;56.330;43.838;2023-05-11T17:00:48;101199.91;;;15.97;41.58
63946;BME280;50122;56.330;43.838;2023-05-11T17:03:17;101204.13;;;15.84;42.34
63946;BME280;50122;56.330;43.838;2023-05-11T17:05:44;101204.66;;;15.73;42.37
63946;BME280;50122;56.330;43.838;2023-05-11T17:08:10;101212.97;;;15.67;42.66
63946;BME280;50122;56.330;43.838;2023-05-11T17:10:37;101212.16;;;15.65;42.41
63946;BME280;50122;56.330;43.838;2023-05-11T17:13:04;101209.81;;;15.59;42.46
63946;BME280;50122;56.330;43.838;2023-05-11T17:15:30;101211.47;;;15.61;42.54
63946;BME280;50122;56.330;43.838;2023-05-11T17:17:57;101216.88;;;15.60;42.65
63946;BME280;50122;56.330;43.838;2023-05-11T17:20:24;101218.97;;;15.53;43.18
63946;BME280;50122;56.330;43.838;2023-05-11T17:22:51;101221.16;;;15.45;43.56
63946;BME280;50122;56.330;43.838;2023-05-11T17:25:19;101224.34;;;15.34;44.12
63946;BME280;50122;56.330;43.838;2023-05-11T17:27:46;101221.50;;;15.20;44.50
63946;BME280;50122;56.330;43.838;2023-05-11T17:30:13;101230.94;;;15.08;44.88
63946;BME280;50122;56.330;43.838;2023-05-11T17:32:39;101230.78;;;14.92;44.57
63946;BME280;50122;56.330;43.838;2023-05-11T17:35:07;101226.97;;;14.79;45.72
63946;BME280;50122;56.330;43.838;2023-05-11T17:37:34;101232.88;;;14.66;46.08
63946;BME280;50122;56.330;43.838;2023-05-11T17:40:01;101238.72;;;14.54;46.41
63946;BME280;50122;56.330;43.838;2023-05-11T17:42:29;101240.84;;;14.46;46.90
63946;BME280;50122;56.330;43.838;2023-05-11T17:44:56;101238.69;;;14.35;47.42
63946;BME280;50122;56.330;43.838;2023-05-11T17:47:23;101232.91;;;14.25;48.09
63946;BME280;50122;56.330;43.838;2023-05-11T17:49:51;101241.34;;;14.14;48.68
63946;BME280;50122;56.330;43.838;2023-05-11T17:52:18;101237.31;;;14.05;49.11
63946;BME280;50122;56.330;43.838;2023-05-11T17:54:45;101243.00;;;13.96;49.67
63946;BME280;50122;56.330;43.838;2023-05-11T17:57:11;101246.13;;;13.85;50.32
63946;BME280;50122;56.330;43.838;2023-05-11T17:59:38;101243.06;;;13.74;50.72
63946;BME280;50122;56.330;43.838;2023-05-11T18:02:05;101240.88;;;13.62;51.76
63946;BME280;50122;56.330;43.838;2023-05-11T18:04:33;101237.03;;;13.48;52.12
63946;BME280;50122;56.330;43.838;2023-05-11T18:07:00;101235.72;;;13.36;52.71
63946;BME280;50122;56.330;43.838;2023-05-11T18:09:28;101244.66;;;13.34;53.24
63946;BME280;50122;56.330;43.838;2023-05-11T18:11:54;101237.22;;;13.20;53.21
63946;BME280;50122;56.330;43.838;2023-05-11T18:14:21;101238.44;;;13.11;53.49
63946;BME280;50122;56.330;43.838;2023-05-11T18:16:48;101239.53;;;13.06;53.46
63946;BME280;50122;56.330;43.838;2023-05-11T18:19:16;101237.25;;;12.96;53.81
63946;BME280;50122;56.330;43.838;2023-05-11T18:21:43;101232.31;;;12.87;54.70
63946;BME280;50122;56.330;43.838;2023-05-11T18:24:10;101235.13;;;12.82;54.58
63946;BME280;50122;56.330;43.838;2023-05-11T18:26:40;101240.72;;;12.75;55.03
63946;BME280;50122;56.330;43.838;2023-05-11T18:29:06;101228.69;;;12.66;55.35
63946;BME280;50122;56.330;43.838;2023-05-11T18:31:33;101231.53;;;12.61;55.52
63946;BME280;50122;56.330;43.838;2023-05-11T18:34:00;101228.28;;;12.53;55.56
63946;BME280;50122;56.330;43.838;2023-05-11T18:36:27;101236.47;;;12.47;56.10
63946;BME280;50122;56.330;43.838;2023-05-11T18:38:54;101232.25;;;12.41;56.34
63946;BME280;50122;56.330;43.838;2023-05-11T18:41:21;101236.91;;;12.34;56.37
63946;BME280;50122;56.330;43.838;2023-05-11T18:43:48;101240.63;;;12.29;56.62
63946;BME280;50122;56.330;43.838;2023-05-11T18:46:15;101228.50;;;12.22;56.98
63946;BME280;50122;56.330;43.838;2023-05-11T18:48:42;101234.03;;;12.15;56.97
63946;BME280;50122;56.330;43.838;2023-05-11T18:51:09;101231.63;;;12.09;57.36
63946;BME280;50122;56.330;43.838;2023-05-11T18:53:36;101238.78;;;12.06;57.69
63946;BME280;50122;56.330;43.838;2023-05-11T18:56:12;101237.31;;;11.97;57.99
63946;BME280;50122;56.330;43.838;2023-05-11T18:58:39;101226.19;;;11.86;57.68
63946;BME280;50122;56.330;43.838;2023-05-11T19:01:06;101238.59;;;11.85;57.89
63946;BME280;50122;56.330;43.838;2023-05-11T19:03:33;101238.03;;;11.75;58.02
63946;BME280;50122;56.330;43.838;2023-05-11T19:06:01;101241.63;;;11.73;58.29
63946;BME280;50122;56.330;43.838;2023-05-11T19:08:28;101248.03;;;11.67;58.42
63946;BME280;50122;56.330;43.838;2023-05-11T19:10:55;101242.81;;;11.64;59.08
63946;BME280;50122;56.330;43.838;2023-05-11T19:13:22;101241.31;;;11.55;59.00
63946;BME280;50122;56.330;43.838;2023-05-11T19:15:48;101235.50;;;11.45;59.45
63946;BME280;50122;56.330;43.838;2023-05-11T19:18:15;101247.03;;;11.43;59.95
63946;BME280;50122;56.330;43.838;2023-05-11T19:20:43;101242.97;;;11.33;59.89
63946;BME280;50122;56.330;43.838;2023-05-11T19:23:09;101236.97;;;11.26;60.31
63946;BME280;50122;56.330;43.838;2023-05-11T19:25:36;101241.63;;;11.18;60.37
63946;BME280;50122;56.330;43.838;2023-05-11T19:28:03;101233.03;;;11.11;61.13
63946;BME280;50122;56.330;43.838;2023-05-11T19:30:29;101243.78;;;11.06;61.09
63946;BME280;50122;56.330;43.838;2023-05-11T19:32:56;101238.75;;;10.97;61.55
63946;BME280;50122;56.330;43.838;2023-05-11T19:35:23;101233.69;;;10.89;61.60
63946;BME280;50122;56.330;43.838;2023-05-11T19:37:50;101243.53;;;10.84;62.50
63946;BME280;50122;56.330;43.838;2023-05-11T19:40:16;101251.59;;;10.80;62.61
63946;BME280;50122;56.330;43.838;2023-05-11T19:43:05;101243.03;;;10.71;62.82
63946;BME280;50122;56.330;43.838;2023-05-11T19:45:32;101249.34;;;10.66;63.28
63946;BME280;50122;56.330;43.838;2023-05-11T19:47:59;101246.88;;;10.59;63.28
63946;BME280;50122;56.330;43.838;2023-05-11T19:50:26;101247.03;;;10.55;63.44
63946;BME280;50122;56.330;43.838;2023-05-11T19:52:53;101242.81;;;10.48;63.44
63946;BME280;50122;56.330;43.838;2023-05-11T19:55:20;101250.78;;;10.46;63.72
63946;BME280;50122;56.330;43.838;2023-05-11T19:57:47;101247.44;;;10.39;64.06
63946;BME280;50122;56.330;43.838;2023-05-11T20:00:15;101244.03;;;10.36;64.00
63946;BME280;50122;56.330;43.838;2023-05-11T20:02:45;101237.19;;;10.27;64.45
63946;BME280;50122;56.330;43.838;2023-05-11T20:05:13;101237.25;;;10.24;64.44
63946;BME280;50122;56.330;43.838;2023-05-11T20:07:39;101237.34;;;10.21;64.36
63946;BME280;50122;56.330;43.838;2023-05-11T20:10:07;101244.50;;;10.17;64.58
63946;BME280;50122;56.330;43.838;2023-05-11T20:12:34;101236.75;;;10.11;64.66
63946;BME280;50122;56.330;43.838;2023-05-11T20:15:05;101228.16;;;10.03;65.15
63946;BME280;50122;56.330;43.838;2023-05-11T20:17:32;101228.31;;;9.97;65.38
63946;BME280;50122;56.330;43.838;2023-05-11T20:20:00;101239.69;;;9.99;65.66
63946;BME280;50122;56.330;43.838;2023-05-11T20:22:27;101232.88;;;9.90;65.82
63946;BME280;50122;56.330;43.838;2023-05-11T20:24:54;101235.56;;;9.88;65.87
63946;BME280;50122;56.330;43.838;2023-05-11T20:27:20;101229.56;;;9.82;66.20
63946;BME280;50122;56.330;43.838;2023-05-11T20:29:47;101226.19;;;9.77;66.60
63946;BME280;50122;56.330;43.838;2023-05-11T20:32:14;101230.50;;;9.79;66.49
63946;BME280;50122;56.330;43.838;2023-05-11T20:34:40;101227.06;;;9.77;67.01
63946;BME280;50122;56.330;43.838;2023-05-11T20:37:07;101227.13;;;9.74;66.81
63946;BME280;50122;56.330;43.838;2023-05-11T20:39:35;101217.59;;;9.68;67.14
63946;BME280;50122;56.330;43.838;2023-05-11T20:42:03;101219.41;;;9.66;67.21
63946;BME280;50122;56.330;43.838;2023-05-11T20:44:30;101220.41;;;9.62;67.47
63946;BME280;50122;56.330;43.838;2023-05-11T20:46:56;101221.38;;;9.58;67.21
63946;BME280;50122;56.330;43.838;2023-05-11T20:49:23;101213.56;;;9.53;67.84
63946;BME280;50122;56.330;43.838;2023-05-11T20:52:03;101218.84;;;9.53;67.68
63946;BME280;50122;56.330;43.838;2023-05-11T20:54:33;101214.47;;;9.52;68.03
63946;BME280;50122;56.330;43.838;2023-05-11T20:57:02;101217.94;;;9.54;68.14
63946;BME280;50122;56.330;43.838;2023-05-11T20:59:30;101222.22;;;9.59;67.98
63946;BME280;50122;56.330;43.838;2023-05-11T21:02:00;101216.88;;;9.62;68.47
63946;BME280;50122;56.330;43.838;2023-05-11T21:04:26;101217.63;;;9.67;68.23
63946;BME280;50122;56.330;43.838;2023-05-11T21:06:55;101220.28;;;9.67;68.17
63946;BME280;50122;56.330;43.838;2023-05-11T21:09:22;101221.94;;;9.71;68.46
63946;BME280;50122;56.330;43.838;2023-05-11T21:11:50;101217.47;;;9.73;67.83
63946;BME280;50122;56.330;43.838;2023-05-11T21:14:17;101217.38;;;9.76;67.89
63946;BME280;50122;56.330;43.838;2023-05-11T21:16:45;101221.00;;;9.72;67.90
63946;BME280;50122;56.330;43.838;2023-05-11T21:19:11;101228.97;;;9.70;68.42
63946;BME280;50122;56.330;43.838;2023-05-11T21:21:38;101220.31;;;9.65;68.21
63946;BME280;50122;56.330;43.838;2023-05-11T21:24:04;101226.63;;;9.60;68.21
63946;BME280;50122;56.330;43.838;2023-05-11T21:26:31;101225.00;;;9.54;68.25
63946;BME280;50122;56.330;43.838;2023-05-11T21:28:58;101218.13;;;9.47;68.33
63946;BME280;50122;56.330;43.838;2023-05-11T21:31:26;101218.22;;;9.44;68.60
63946;BME280;50122;56.330;43.838;2023-05-11T21:33:52;101220.88;;;9.42;69.03
63946;BME280;50122;56.330;43.838;2023-05-11T21:36:19;101226.28;;;9.37;68.86
63946;BME280;50122;56.330;43.838;2023-05-11T21:38:47;101221.09;;;9.33;69.02
63946;BME280;50122;56.330;43.838;2023-05-11T21:41:14;101224.72;;;9.29;68.78
63946;BME280;50122;56.330;43.838;2023-05-11T21:43:42;101222.16;;;9.24;69.19
63946;BME280;50122;56.330;43.838;2023-05-11T21:46:08;101219.59;;;9.21;69.51
63946;BME280;50122;56.330;43.838;2023-05-11T21:48:35;101217.09;;;9.16;69.90
63946;BME280;50122;56.330;43.838;2023-05-11T21:51:02;101219.84;;;9.12;69.89
63946;BME280;50122;56.330;43.838;2023-05-11T21:53:29;101217.31;;;9.07;69.94
63946;BME280;50122;56.330;43.838;2023-05-11T21:55:55;101221.78;;;9.03;70.31
63946;BME280;50122;56.330;43.838;2023-05-11T21:58:22;101219.19;;;9.00;69.84
63946;BME280;50122;56.330;43.838;2023-05-11T22:00:49;101219.34;;;8.94;70.37
63946;BME280;50122;56.330;43.838;2023-05-11T22:03:17;101220.28;;;8.92;70.58
63946;BME280;50122;56.330;43.838;2023-05-11T22:05:44;101213.41;;;8.84;71.15
63946;BME280;50122;56.330;43.838;2023-05-11T22:08:12;101216.97;;;8.82;70.89
63946;BME280;50122;56.330;43.838;2023-05-11T22:10:41;101211.72;;;8.80;71.53
63946;BME280;50122;56.330;43.838;2023-05-11T22:13:08;101212.69;;;8.76;71.06
63946;BME280;50122;56.330;43.838;2023-05-11T22:15:39;101212.75;;;8.73;71.48
63946;BME280;50122;56.330;43.838;2023-05-11T22:18:06;101218.13;;;8.68;71.33
63946;BME280;50122;56.330;43.838;2023-05-11T22:20:33;101222.66;;;8.62;71.72
63946;BME280;50122;56.330;43.838;2023-05-11T22:23:01;101216.66;;;8.55;71.51
63946;BME280;50122;56.330;43.838;2023-05-11T22:25:27;101216.72;;;8.50;72.00
63946;BME280;50122;56.330;43.838;2023-05-11T22:27:54;101213.31;;;8.47;72.46
63946;BME280;50122;56.330;43.838;2023-05-11T22:30:21;101215.94;;;8.47;72.53
63946;BME280;50122;56.330;43.838;2023-05-11T22:32:48;101213.41;;;8.41;72.84
63946;BME280;50122;56.330;43.838;2023-05-11T22:35:15;101220.41;;;8.40;72.76
63946;BME280;50122;56.330;43.838;2023-05-11T22:37:43;101221.38;;;8.36;73.23
63946;BME280;50122;56.330;43.838;2023-05-11T22:40:10;101210.91;;;8.33;72.74
63946;BME280;50122;56.330;43.838;2023-05-11T22:42:37;101209.19;;;8.30;73.49
63946;BME280;50122;56.330;43.838;2023-05-11T22:45:04;101216.25;;;8.30;74.00
63946;BME280;50122;56.330;43.838;2023-05-11T22:47:31;101218.94;;;8.27;73.86
63946;BME280;50122;56.330;43.838;2023-05-11T22:49:58;101213.75;;;8.22;73.94
63946;BME280;50122;56.330;43.838;2023-05-11T22:52:25;101203.31;;;8.16;74.01
63946;BME280;50122;56.330;43.838;2023-05-11T22:54:53;101205.03;;;8.18;74.05
63946;BME280;50122;56.330;43.838;2023-05-11T22:57:20;101198.94;;;8.16;74.34
63946;BME280;50122;56.330;43.838;2023-05-11T22:59:49;101210.38;;;8.15;74.86
63946;BME280;50122;56.330;43.838;2023-05-11T23:02:16;101202.53;;;8.12;74.40
63946;BME280;50122;56.330;43.838;2023-05-11T23:04:48;101204.31;;;8.12;74.39
63946;BME280;50122;56.330;43.838;2023-05-11T23:07:15;101204.38;;;8.07;74.66
63946;BME280;50122;56.330;43.838;2023-05-11T23:09:42;101198.34;;;8.02;74.91
63946;BME280;50122;56.330;43.838;2023-05-11T23:12:09;101208.91;;;8.00;74.63
63946;BME280;50122;56.330;43.838;2023-05-11T23:14:35;101203.63;;;8.00;74.83
63946;BME280;50122;56.330;43.838;2023-05-11T23:17:02;101215.09;;;7.98;75.25
63946;BME280;50122;56.330;43.838;2023-05-11T23:19:29;101202.94;;;7.91;75.67
63946;BME280;50122;56.330;43.838;2023-05-11T23:21:56;101204.69;;;7.92;75.85
63946;BME280;50122;56.330;43.838;2023-05-11T23:24:23;101203.00;;;7.86;75.68
63946;BME280;50122;56.330;43.838;2023-05-11T23:26:49;101217.03;;;7.87;75.60
63946;BME280;50122;56.330;43.838;2023-05-11T23:29:16;101201.38;;;7.79;75.54
63946;BME280;50122;56.330;43.838;2023-05-11T23:31:43;101209.34;;;7.76;76.09
63946;BME280;50122;56.330;43.838;2023-05-11T23:34:09;101198.88;;;7.73;75.76
63946;BME280;50122;56.330;43.838;2023-05-11T23:36:36;101208.53;;;7.71;76.07
63946;BME280;50122;56.330;43.838;2023-05-11T23:39:03;101198.13;;;7.64;76.50
63946;BME280;50122;56.330;43.838;2023-05-11T23:41:30;101213.03;;;7.64;75.84
63946;BME280;50122;56.330;43.838;2023-05-11T23:43:57;101204.34;;;7.60;76.53
63946;BME280;50122;56.330;43.838;2023-05-11T23:46:25;101203.56;;;7.54;76.20
63946;BME280;50122;56.330;43.838;2023-05-11T23:48:52;101203.59;;;7.51;76.79
63946;BME280;50122;56.330;43.838;2023-05-11T23:51:18;101210.75;;;7.44;76.98
63946;BME280;50122;56.330;43.838;2023-05-11T23:53:45;101210.81;;;7.38;77.10
63946;BME280;50122;56.330;43.838;2023-05-11T23:56:11;101196.97;;;7.26;76.50
63946;BME280;50122;56.330;43.838;2023-05-11T23:58:40;101207.50;;;7.28;76.68
